sensor_id;sensor_type;location;lat;lon;timestamp;temperature;humidity
21849;DHT22;11089;49.852;19.700;2024-03-08T00:02:49;1.80;1.00
21849;DHT22;11089;49.852;19.700;2024-03-08T00:05:51;1.80;1.00
21849;DHT22;11089;49.852;19.700;2024-03-08T00:08:52;1.70;1.00
21849;DHT22;11089;49.852;19.700;2024-03-08T00:11:53;1.70;99.90
21849;DHT22;11089;49.852;19.700;2024-03-08T00:14:54;1.70;99.90
21849;DHT22;11089;49.852;19.700;2024-03-08T00:17:55;1.70;1.00
21849;DHT22;11089;49.852;19.700;2024-03-08T00:20:56;1.70;1.00
21849;DHT22;11089;49.852;19.700;2024-03-08T00:23:57;1.60;1.00
21849;DHT22;11089;49.852;19.700;2024-03-08T00:26:57;1.70;1.00
21849;DHT22;11089;49.852;19.700;2024-03-08T00:29:59;1.70;1.00
21849;DHT22;11089;49.852;19.700;2024-03-08T00:33:00;1.70;1.00
21849;DHT22;11089;49.852;19.700;2024-03-08T00:36:02;1.80;1.00
21849;DHT22;11089;49.852;19.700;2024-03-08T00:39:03;1.70;99.90
21849;DHT22;11089;49.852;19.700;2024-03-08T00:42:07;1.70;99.90
21849;DHT22;11089;49.852;19.700;2024-03-08T00:45:08;1.60;1.00
21849;DHT22;11089;49.852;19.700;2024-03-08T00:48:10;1.70;99.90
21849;DHT22;11089;49.852;19.700;2024-03-08T00:51:11;1.80;13.70
21849;DHT22;11089;49.852;19.700;2024-03-08T00:54:12;1.70;1.00
21849;DHT22;11089;49.852;19.700;2024-03-08T00:57:13;1.70;1.00
21849;DHT22;11089;49.852;19.700;2024-03-08T01:00:14;1.80;1.00
21849;DHT22;11089;49.852;19.700;2024-03-08T01:03:15;1.70;99.90
21849;DHT22;11089;49.852;19.700;2024-03-08T01:06:16;1.70;99.90
21849;DHT22;11089;49.852;19.700;2024-03-08T01:09:17;1.70;1.00
21849;DHT22;11089;49.852;19.700;2024-03-08T01:12:18;1.70;1.00
21849;DHT22;11089;49.852;19.700;2024-03-08T01:15:19;1.70;1.00
21849;DHT22;11089;49.852;19.700;2024-03-08T01:18:20;1.70;1.00
21849;DHT22;11089;49.852;19.700;2024-03-08T01:21:21;1.70;1.00
21849;DHT22;11089;49.852;19.700;2024-03-08T01:24:23;1.60;1.00
21849;DHT22;11089;49.852;19.700;2024-03-08T01:27:23;1.60;1.00
21849;DHT22;11089;49.852;19.700;2024-03-08T01:30:25;1.60;1.00
21849;DHT22;11089;49.852;19.700;2024-03-08T01:33:27;1.60;1.00
21849;DHT22;11089;49.852;19.700;2024-03-08T01:36:27;1.60;1.00
21849;DHT22;11089;49.852;19.700;2024-03-08T01:39:28;1.60;1.00
21849;DHT22;11089;49.852;19.700;2024-03-08T01:42:29;1.60;1.00
21849;DHT22;11089;49.852;19.700;2024-03-08T01:45:30;1.50;1.00
21849;DHT22;11089;49.852;19.700;2024-03-08T01:48:35;1.40;1.00
21849;DHT22;11089;49.852;19.700;2024-03-08T01:51:37;1.40;1.00
21849;DHT22;11089;49.852;19.700;2024-03-08T01:54:39;1.50;1.00
21849;DHT22;11089;49.852;19.700;2024-03-08T01:57:41;1.40;99.90
21849;DHT22;11089;49.852;19.700;2024-03-08T02:00:48;1.40;99.90
21849;DHT22;11089;49.852;19.700;2024-03-08T02:03:52;1.40;1.00
21849;DHT22;11089;49.852;19.700;2024-03-08T02:06:53;1.40;1.00
21849;DHT22;11089;49.852;19.700;2024-03-08T02:09:53;1.40;1.00
21849;DHT22;11089;49.852;19.700;2024-03-08T02:12:55;1.40;1.00
21849;DHT22;11089;49.852;19.700;2024-03-08T02:15:58;1.30;99.90
21849;DHT22;11089;49.852;19.700;2024-03-08T02:19:02;1.40;1.00
21849;DHT22;11089;49.852;19.700;2024-03-08T02:22:03;1.40;1.00
21849;DHT22;11089;49.852;19.700;2024-03-08T02:25:05;1.40;99.90
21849;DHT22;11089;49.852;19.700;2024-03-08T02:28:06;1.40;1.00
21849;DHT22;11089;49.852;19.700;2024-03-08T02:31:08;1.50;99.90
21849;DHT22;11089;49.852;19.700;2024-03-08T02:34:09;1.40;1.00
21849;DHT22;11089;49.852;19.700;2024-03-08T02:37:10;1.40;99.90
21849;DHT22;11089;49.852;19.700;2024-03-08T02:40:11;1.40;1.00
21849;DHT22;11089;49.852;19.700;2024-03-08T02:43:13;1.40;1.00
21849;DHT22;11089;49.852;19.700;2024-03-08T02:46:18;1.30;99.90
21849;DHT22;11089;49.852;19.700;2024-03-08T02:49:19;1.30;1.00
21849;DHT22;11089;49.852;19.700;2024-03-08T02:52:20;1.30;1.00
21849;DHT22;11089;49.852;19.700;2024-03-08T02:55:21;1.40;99.90
21849;DHT22;11089;49.852;19.700;2024-03-08T02:58:22;1.40;99.90
21849;DHT22;11089;49.852;19.700;2024-03-08T03:01:23;1.40;47.90
21849;DHT22;11089;49.852;19.700;2024-03-08T03:04:24;1.40;1.00
21849;DHT22;11089;49.852;19.700;2024-03-08T03:07:25;1.40;99.90
21849;DHT22;11089;49.852;19.700;2024-03-08T03:10:28;1.40;28.30
21849;DHT22;11089;49.852;19.700;2024-03-08T03:13:29;1.40;99.90
21849;DHT22;11089;49.852;19.700;2024-03-08T03:16:30;1.40;81.50
21849;DHT22;11089;49.852;19.700;2024-03-08T03:19:31;1.40;99.90
21849;DHT22;11089;49.852;19.700;2024-03-08T03:22:32;1.40;17.20
21849;DHT22;11089;49.852;19.700;2024-03-08T03:25:35;1.40;99.90
21849;DHT22;11089;49.852;19.700;2024-03-08T03:28:36;1.40;1.00
21849;DHT22;11089;49.852;19.700;2024-03-08T03:31:40;1.40;1.00
21849;DHT22;11089;49.852;19.700;2024-03-08T03:34:41;1.40;1.00
21849;DHT22;11089;49.852;19.700;2024-03-08T03:37:44;1.40;1.00
21849;DHT22;11089;49.852;19.700;2024-03-08T03:40:51;1.40;1.00
21849;DHT22;11089;49.852;19.700;2024-03-08T03:43:56;1.40;1.00
21849;DHT22;11089;49.852;19.700;2024-03-08T03:46:58;1.30;99.90
21849;DHT22;11089;49.852;19.700;2024-03-08T03:49:58;1.40;1.00
21849;DHT22;11089;49.852;19.700;2024-03-08T03:53:03;1.40;1.00
21849;DHT22;11089;49.852;19.700;2024-03-08T03:56:04;1.50;1.00
21849;DHT22;11089;49.852;19.700;2024-03-08T03:59:07;1.40;99.90
21849;DHT22;11089;49.852;19.700;2024-03-08T04:02:08;1.30;1.00
21849;DHT22;11089;49.852;19.700;2024-03-08T04:05:10;1.40;89.80
21849;DHT22;11089;49.852;19.700;2024-03-08T04:08:11;1.30;94.20
21849;DHT22;11089;49.852;19.700;2024-03-08T04:11:12;1.30;99.90
21849;DHT22;11089;49.852;19.700;2024-03-08T04:14:13;1.30;1.00
21849;DHT22;11089;49.852;19.700;2024-03-08T04:17:14;1.20;99.90
21849;DHT22;11089;49.852;19.700;2024-03-08T04:20:14;1.30;1.00
21849;DHT22;11089;49.852;19.700;2024-03-08T04:23:15;1.20;52.30
21849;DHT22;11089;49.852;19.700;2024-03-08T04:26:18;1.30;99.90
21849;DHT22;11089;49.852;19.700;2024-03-08T04:29:19;1.30;99.90
21849;DHT22;11089;49.852;19.700;2024-03-08T04:32:20;1.20;1.00
21849;DHT22;11089;49.852;19.700;2024-03-08T04:35:20;1.30;1.00
21849;DHT22;11089;49.852;19.700;2024-03-08T04:38:22;1.30;99.90
21849;DHT22;11089;49.852;19.700;2024-03-08T04:41:23;1.30;99.90
21849;DHT22;11089;49.852;19.700;2024-03-08T04:44:24;1.30;99.90
21849;DHT22;11089;49.852;19.700;2024-03-08T04:47:27;1.30;1.00
21849;DHT22;11089;49.852;19.700;2024-03-08T04:50:28;1.30;1.00
21849;DHT22;11089;49.852;19.700;2024-03-08T04:53:29;1.30;33.90
21849;DHT22;11089;49.852;19.700;2024-03-08T04:56:30;1.30;1.00
21849;DHT22;11089;49.852;19.700;2024-03-08T04:59:32;1.30;1.00
21849;DHT22;11089;49.852;19.700;2024-03-08T05:02:33;1.30;1.00
21849;DHT22;11089;49.852;19.700;2024-03-08T05:05:33;1.30;1.00
21849;DHT22;11089;49.852;19.700;2024-03-08T05:08:34;1.30;1.00
21849;DHT22;11089;49.852;19.700;2024-03-08T05:11:35;1.30;1.00
21849;DHT22;11089;49.852;19.700;2024-03-08T05:14:36;1.40;1.00
21849;DHT22;11089;49.852;19.700;2024-03-08T05:17:37;1.40;1.00
21849;DHT22;11089;49.852;19.700;2024-03-08T05:20:38;1.30;1.00
21849;DHT22;11089;49.852;19.700;2024-03-08T05:23:39;1.30;99.90
21849;DHT22;11089;49.852;19.700;2024-03-08T05:26:40;1.30;1.00
21849;DHT22;11089;49.852;19.700;2024-03-08T05:29:42;1.30;1.00
21849;DHT22;11089;49.852;19.700;2024-03-08T05:32:43;1.20;1.00
21849;DHT22;11089;49.852;19.700;2024-03-08T05:35:46;1.20;1.00
21849;DHT22;11089;49.852;19.700;2024-03-08T05:38:47;1.20;1.00
21849;DHT22;11089;49.852;19.700;2024-03-08T05:41:51;1.20;1.00
21849;DHT22;11089;49.852;19.700;2024-03-08T05:44:51;1.20;1.00
21849;DHT22;11089;49.852;19.700;2024-03-08T05:47:53;1.20;1.00
21849;DHT22;11089;49.852;19.700;2024-03-08T05:50:54;1.30;1.00
21849;DHT22;11089;49.852;19.700;2024-03-08T05:53:55;1.30;1.00
21849;DHT22;11089;49.852;19.700;2024-03-08T05:56:57;1.40;1.00
21849;DHT22;11089;49.852;19.700;2024-03-08T05:59:58;1.30;99.90
21849;DHT22;11089;49.852;19.700;2024-03-08T06:02:59;1.40;99.90
21849;DHT22;11089;49.852;19.700;2024-03-08T06:06:00;1.30;99.90
21849;DHT22;11089;49.852;19.700;2024-03-08T06:09:01;1.40;99.90
21849;DHT22;11089;49.852;19.700;2024-03-08T06:12:09;1.40;99.90
21849;DHT22;11089;49.852;19.700;2024-03-08T06:15:12;1.30;72.80
21849;DHT22;11089;49.852;19.700;2024-03-08T06:18:16;1.30;91.20
21849;DHT22;11089;49.852;19.700;2024-03-08T06:21:18;1.40;99.90
21849;DHT22;11089;49.852;19.700;2024-03-08T06:24:18;1.50;99.90
21849;DHT22;11089;49.852;19.700;2024-03-08T06:27:20;1.40;98.30
21849;DHT22;11089;49.852;19.700;2024-03-08T06:30:21;1.50;99.90
21849;DHT22;11089;49.852;19.700;2024-03-08T06:33:22;1.50;1.00
21849;DHT22;11089;49.852;19.700;2024-03-08T06:36:23;1.60;99.90
21849;DHT22;11089;49.852;19.700;2024-03-08T06:39:24;1.70;99.90
21849;DHT22;11089;49.852;19.700;2024-03-08T06:42:26;1.70;1.00
21849;DHT22;11089;49.852;19.700;2024-03-08T06:45:26;1.70;1.00
21849;DHT22;11089;49.852;19.700;2024-03-08T06:48:29;1.70;55.40
21849;DHT22;11089;49.852;19.700;2024-03-08T06:51:30;1.80;1.00
21849;DHT22;11089;49.852;19.700;2024-03-08T06:54:31;1.70;1.00
21849;DHT22;11089;49.852;19.700;2024-03-08T06:57:33;1.70;1.00
21849;DHT22;11089;49.852;19.700;2024-03-08T07:00:34;1.80;1.00
21849;DHT22;11089;49.852;19.700;2024-03-08T07:03:35;1.90;1.00
21849;DHT22;11089;49.852;19.700;2024-03-08T07:06:36;1.90;1.00
21849;DHT22;11089;49.852;19.700;2024-03-08T07:09:37;2.00;1.00
21849;DHT22;11089;49.852;19.700;2024-03-08T07:12:38;2.10;1.00
21849;DHT22;11089;49.852;19.700;2024-03-08T07:15:39;2.10;1.00
21849;DHT22;11089;49.852;19.700;2024-03-08T07:18:40;2.10;1.00
21849;DHT22;11089;49.852;19.700;2024-03-08T07:21:44;2.10;99.90
21849;DHT22;11089;49.852;19.700;2024-03-08T07:24:45;2.20;99.90
21849;DHT22;11089;49.852;19.700;2024-03-08T07:27:59;2.30;99.90
21849;DHT22;11089;49.852;19.700;2024-03-08T07:31:01;2.40;99.90
21849;DHT22;11089;49.852;19.700;2024-03-08T07:34:22;2.30;1.00
21849;DHT22;11089;49.852;19.700;2024-03-08T07:37:23;2.20;1.00
21849;DHT22;11089;49.852;19.700;2024-03-08T07:40:24;2.30;1.00
21849;DHT22;11089;49.852;19.700;2024-03-08T07:43:25;2.20;1.00
21849;DHT22;11089;49.852;19.700;2024-03-08T07:46:25;2.00;1.00
21849;DHT22;11089;49.852;19.700;2024-03-08T07:49:26;2.10;1.00
21849;DHT22;11089;49.852;19.700;2024-03-08T07:52:27;2.20;1.00
21849;DHT22;11089;49.852;19.700;2024-03-08T07:55:28;2.40;1.00
21849;DHT22;11089;49.852;19.700;2024-03-08T07:58:29;2.30;1.00
21849;DHT22;11089;49.852;19.700;2024-03-08T08:01:30;2.40;1.00
21849;DHT22;11089;49.852;19.700;2024-03-08T08:04:31;2.40;1.00
21849;DHT22;11089;49.852;19.700;2024-03-08T08:07:32;2.40;99.90
21849;DHT22;11089;49.852;19.700;2024-03-08T08:10:33;2.40;1.00
21849;DHT22;11089;49.852;19.700;2024-03-08T08:13:34;2.50;1.00
21849;DHT22;11089;49.852;19.700;2024-03-08T08:16:35;2.50;1.00
21849;DHT22;11089;49.852;19.700;2024-03-08T08:19:41;2.60;1.00
21849;DHT22;11089;49.852;19.700;2024-03-08T08:22:43;2.60;1.00
21849;DHT22;11089;49.852;19.700;2024-03-08T08:25:45;2.50;99.90
21849;DHT22;11089;49.852;19.700;2024-03-08T08:28:46;2.40;99.90
21849;DHT22;11089;49.852;19.700;2024-03-08T08:31:47;2.50;99.90
21849;DHT22;11089;49.852;19.700;2024-03-08T08:34:48;2.60;99.90
21849;DHT22;11089;49.852;19.700;2024-03-08T08:37:49;2.70;1.00
21849;DHT22;11089;49.852;19.700;2024-03-08T08:40:50;2.70;99.90
21849;DHT22;11089;49.852;19.700;2024-03-08T08:43:51;2.60;99.60
21849;DHT22;11089;49.852;19.700;2024-03-08T08:46:51;2.70;99.90
21849;DHT22;11089;49.852;19.700;2024-03-08T08:49:52;2.70;99.90
21849;DHT22;11089;49.852;19.700;2024-03-08T08:52:55;2.80;99.90
21849;DHT22;11089;49.852;19.700;2024-03-08T08:55:56;2.90;99.90
21849;DHT22;11089;49.852;19.700;2024-03-08T08:58:57;2.80;1.00
21849;DHT22;11089;49.852;19.700;2024-03-08T09:01:58;2.90;70.90
21849;DHT22;11089;49.852;19.700;2024-03-08T09:04:59;2.80;99.90
21849;DHT22;11089;49.852;19.700;2024-03-08T09:08:01;2.90;99.90
21849;DHT22;11089;49.852;19.700;2024-03-08T09:11:03;3.00;99.90
21849;DHT22;11089;49.852;19.700;2024-03-08T09:14:04;2.80;1.00
21849;DHT22;11089;49.852;19.700;2024-03-08T09:17:05;2.60;1.00
21849;DHT22;11089;49.852;19.700;2024-03-08T09:20:09;2.80;99.90
21849;DHT22;11089;49.852;19.700;2024-03-08T09:23:11;2.70;99.90
21849;DHT22;11089;49.852;19.700;2024-03-08T09:26:12;3.00;99.90
21849;DHT22;11089;49.852;19.700;2024-03-08T09:29:13;3.00;99.90
21849;DHT22;11089;49.852;19.700;2024-03-08T09:32:14;3.10;99.90
21849;DHT22;11089;49.852;19.700;2024-03-08T09:35:15;3.20;74.90
21849;DHT22;11089;49.852;19.700;2024-03-08T09:38:16;3.30;99.90
21849;DHT22;11089;49.852;19.700;2024-03-08T09:41:17;3.40;99.90
21849;DHT22;11089;49.852;19.700;2024-03-08T09:44:18;3.30;98.50
21849;DHT22;11089;49.852;19.700;2024-03-08T09:47:22;3.40;1.00
21849;DHT22;11089;49.852;19.700;2024-03-08T09:50:25;3.40;1.00
21849;DHT22;11089;49.852;19.700;2024-03-08T09:53:28;3.50;1.00
21849;DHT22;11089;49.852;19.700;2024-03-08T09:56:32;3.50;1.00
21849;DHT22;11089;49.852;19.700;2024-03-08T09:59:34;3.60;1.00
21849;DHT22;11089;49.852;19.700;2024-03-08T10:02:38;3.60;1.00
21849;DHT22;11089;49.852;19.700;2024-03-08T10:05:39;3.40;1.00
21849;DHT22;11089;49.852;19.700;2024-03-08T10:08:40;3.50;1.00
21849;DHT22;11089;49.852;19.700;2024-03-08T10:11:40;3.60;1.00
21849;DHT22;11089;49.852;19.700;2024-03-08T10:14:41;3.70;1.00
21849;DHT22;11089;49.852;19.700;2024-03-08T10:17:42;3.80;1.00
21849;DHT22;11089;49.852;19.700;2024-03-08T10:20:44;3.60;1.00
21849;DHT22;11089;49.852;19.700;2024-03-08T10:23:45;3.60;1.00
21849;DHT22;11089;49.852;19.700;2024-03-08T10:26:46;3.80;1.00
21849;DHT22;11089;49.852;19.700;2024-03-08T10:29:50;3.80;1.00
21849;DHT22;11089;49.852;19.700;2024-03-08T10:32:52;3.90;1.00
21849;DHT22;11089;49.852;19.700;2024-03-08T10:35:53;3.80;1.00
21849;DHT22;11089;49.852;19.700;2024-03-08T10:38:56;3.70;1.00
21849;DHT22;11089;49.852;19.700;2024-03-08T10:42:03;3.70;1.00
21849;DHT22;11089;49.852;19.700;2024-03-08T10:45:34;3.90;1.00
21849;DHT22;11089;49.852;19.700;2024-03-08T10:48:42;3.80;1.00
21849;DHT22;11089;49.852;19.700;2024-03-08T10:51:45;3.70;1.00
21849;DHT22;11089;49.852;19.700;2024-03-08T10:54:48;3.90;1.00
21849;DHT22;11089;49.852;19.700;2024-03-08T10:57:52;3.80;1.00
21849;DHT22;11089;49.852;19.700;2024-03-08T11:00:55;3.80;1.00
21849;DHT22;11089;49.852;19.700;2024-03-08T11:03:56;3.90;1.00
21849;DHT22;11089;49.852;19.700;2024-03-08T11:07:04;4.00;1.00
21849;DHT22;11089;49.852;19.700;2024-03-08T11:10:18;4.10;1.00
21849;DHT22;11089;49.852;19.700;2024-03-08T11:13:48;4.10;1.00
21849;DHT22;11089;49.852;19.700;2024-03-08T11:16:49;3.80;99.90
21849;DHT22;11089;49.852;19.700;2024-03-08T11:19:50;4.00;1.00
21849;DHT22;11089;49.852;19.700;2024-03-08T11:22:54;3.90;1.00
21849;DHT22;11089;49.852;19.700;2024-03-08T11:25:55;4.00;1.00
21849;DHT22;11089;49.852;19.700;2024-03-08T11:32:31;3.90;99.90
21849;DHT22;11089;49.852;19.700;2024-03-08T11:35:33;4.10;1.00
21849;DHT22;11089;49.852;19.700;2024-03-08T11:38:40;4.20;99.90
21849;DHT22;11089;49.852;19.700;2024-03-08T11:41:43;4.30;1.00
21849;DHT22;11089;49.852;19.700;2024-03-08T11:44:46;4.40;99.90
21849;DHT22;11089;49.852;19.700;2024-03-08T11:47:48;4.40;1.00
21849;DHT22;11089;49.852;19.700;2024-03-08T11:50:59;4.50;1.00
21849;DHT22;11089;49.852;19.700;2024-03-08T11:54:02;4.40;1.00
21849;DHT22;11089;49.852;19.700;2024-03-08T11:57:04;4.40;99.90
21849;DHT22;11089;49.852;19.700;2024-03-08T12:00:05;4.20;99.90
21849;DHT22;11089;49.852;19.700;2024-03-08T12:03:09;3.80;99.90
21849;DHT22;11089;49.852;19.700;2024-03-08T12:06:11;3.60;99.90
21849;DHT22;11089;49.852;19.700;2024-03-08T12:09:14;3.70;1.00
21849;DHT22;11089;49.852;19.700;2024-03-08T12:12:17;3.90;1.00
21849;DHT22;11089;49.852;19.700;2024-03-08T12:15:19;4.10;1.00
21849;DHT22;11089;49.852;19.700;2024-03-08T12:18:20;4.20;1.00
21849;DHT22;11089;49.852;19.700;2024-03-08T12:21:21;4.30;1.00
21849;DHT22;11089;49.852;19.700;2024-03-08T12:24:24;4.40;1.00
21849;DHT22;11089;49.852;19.700;2024-03-08T12:27:28;4.50;1.00
21849;DHT22;11089;49.852;19.700;2024-03-08T12:30:31;4.60;1.00
21849;DHT22;11089;49.852;19.700;2024-03-08T12:33:34;4.60;1.00
21849;DHT22;11089;49.852;19.700;2024-03-08T12:36:35;4.50;1.00
21849;DHT22;11089;49.852;19.700;2024-03-08T12:39:40;4.70;1.00
21849;DHT22;11089;49.852;19.700;2024-03-08T12:42:41;4.70;1.00
21849;DHT22;11089;49.852;19.700;2024-03-08T12:45:42;4.70;1.00
21849;DHT22;11089;49.852;19.700;2024-03-08T12:48:44;4.60;99.90
21849;DHT22;11089;49.852;19.700;2024-03-08T12:51:48;4.10;99.90
21849;DHT22;11089;49.852;19.700;2024-03-08T12:54:48;3.90;99.90
21849;DHT22;11089;49.852;19.700;2024-03-08T12:57:50;4.10;1.00
21849;DHT22;11089;49.852;19.700;2024-03-08T13:00:51;4.30;1.00
21849;DHT22;11089;49.852;19.700;2024-03-08T13:03:52;4.40;99.90
21849;DHT22;11089;49.852;19.700;2024-03-08T13:06:53;4.20;99.90
21849;DHT22;11089;49.852;19.700;2024-03-08T13:09:56;4.30;1.00
21849;DHT22;11089;49.852;19.700;2024-03-08T13:12:57;4.60;1.00
21849;DHT22;11089;49.852;19.700;2024-03-08T13:15:58;4.50;99.90
21849;DHT22;11089;49.852;19.700;2024-03-08T13:19:01;4.50;1.00
21849;DHT22;11089;49.852;19.700;2024-03-08T13:22:02;4.70;1.00
21849;DHT22;11089;49.852;19.700;2024-03-08T13:25:05;4.70;99.90
21849;DHT22;11089;49.852;19.700;2024-03-08T13:28:06;4.70;1.00
21849;DHT22;11089;49.852;19.700;2024-03-08T13:31:07;4.60;99.90
21849;DHT22;11089;49.852;19.700;2024-03-08T13:34:10;4.10;99.90
21849;DHT22;11089;49.852;19.700;2024-03-08T13:37:11;4.10;99.90
21849;DHT22;11089;49.852;19.700;2024-03-08T13:40:12;4.20;99.90
21849;DHT22;11089;49.852;19.700;2024-03-08T13:43:19;4.40;1.00
21849;DHT22;11089;49.852;19.700;2024-03-08T13:46:20;4.50;1.00
21849;DHT22;11089;49.852;19.700;2024-03-08T13:49:21;4.60;1.00
21849;DHT22;11089;49.852;19.700;2024-03-08T13:52:22;4.60;99.90
21849;DHT22;11089;49.852;19.700;2024-03-08T13:55:25;4.50;1.00
21849;DHT22;11089;49.852;19.700;2024-03-08T13:58:27;4.70;99.90
21849;DHT22;11089;49.852;19.700;2024-03-08T14:01:28;4.50;99.90
21849;DHT22;11089;49.852;19.700;2024-03-08T14:04:30;4.60;1.00
21849;DHT22;11089;49.852;19.700;2024-03-08T14:07:31;4.70;1.00
21849;DHT22;11089;49.852;19.700;2024-03-08T14:10:34;4.50;99.90
21849;DHT22;11089;49.852;19.700;2024-03-08T14:13:44;4.50;99.90
21849;DHT22;11089;49.852;19.700;2024-03-08T14:16:46;4.50;99.90
21849;DHT22;11089;49.852;19.700;2024-03-08T14:19:47;4.50;99.90
21849;DHT22;11089;49.852;19.700;2024-03-08T14:22:48;4.60;1.00
21849;DHT22;11089;49.852;19.700;2024-03-08T14:25:49;4.70;1.00
21849;DHT22;11089;49.852;19.700;2024-03-08T14:28:52;4.10;99.90
21849;DHT22;11089;49.852;19.700;2024-03-08T14:31:58;4.00;99.90
21849;DHT22;11089;49.852;19.700;2024-03-08T14:34:59;3.90;99.90
21849;DHT22;11089;49.852;19.700;2024-03-08T14:38:00;3.90;1.00
21849;DHT22;11089;49.852;19.700;2024-03-08T14:41:01;3.70;1.00
21849;DHT22;11089;49.852;19.700;2024-03-08T14:44:04;3.60;1.00
21849;DHT22;11089;49.852;19.700;2024-03-08T14:47:05;3.60;1.00
21849;DHT22;11089;49.852;19.700;2024-03-08T14:50:07;3.60;1.00
21849;DHT22;11089;49.852;19.700;2024-03-08T14:53:10;3.70;1.00
21849;DHT22;11089;49.852;19.700;2024-03-08T14:56:14;3.70;1.00
21849;DHT22;11089;49.852;19.700;2024-03-08T14:59:17;3.90;1.00
21849;DHT22;11089;49.852;19.700;2024-03-08T15:02:20;3.90;1.00
21849;DHT22;11089;49.852;19.700;2024-03-08T15:05:23;3.90;1.00
21849;DHT22;11089;49.852;19.700;2024-03-08T15:08:39;3.90;1.00
21849;DHT22;11089;49.852;19.700;2024-03-08T15:11:41;3.90;1.00
21849;DHT22;11089;49.852;19.700;2024-03-08T15:14:43;3.90;1.00
21849;DHT22;11089;49.852;19.700;2024-03-08T15:17:44;3.90;1.00
21849;DHT22;11089;49.852;19.700;2024-03-08T15:20:47;4.00;1.00
21849;DHT22;11089;49.852;19.700;2024-03-08T15:23:49;4.10;1.00
21849;DHT22;11089;49.852;19.700;2024-03-08T15:26:54;4.10;1.00
21849;DHT22;11089;49.852;19.700;2024-03-08T15:29:56;4.00;1.00
21849;DHT22;11089;49.852;19.700;2024-03-08T15:32:58;4.00;1.00
21849;DHT22;11089;49.852;19.700;2024-03-08T15:36:02;3.80;1.00
21849;DHT22;11089;49.852;19.700;2024-03-08T15:39:09;3.60;1.00
21849;DHT22;11089;49.852;19.700;2024-03-08T15:42:11;3.40;1.00
21849;DHT22;11089;49.852;19.700;2024-03-08T15:45:12;3.40;40.20
21849;DHT22;11089;49.852;19.700;2024-03-08T15:48:13;3.30;99.90
21849;DHT22;11089;49.852;19.700;2024-03-08T15:51:14;3.40;63.80
21849;DHT22;11089;49.852;19.700;2024-03-08T15:54:18;3.30;57.00
21849;DHT22;11089;49.852;19.700;2024-03-08T15:57:19;3.30;99.90
21849;DHT22;11089;49.852;19.700;2024-03-08T16:00:22;3.30;99.90
21849;DHT22;11089;49.852;19.700;2024-03-08T16:03:34;3.30;99.90
21849;DHT22;11089;49.852;19.700;2024-03-08T16:06:34;3.20;99.90
21849;DHT22;11089;49.852;19.700;2024-03-08T16:09:37;3.20;99.90
21849;DHT22;11089;49.852;19.700;2024-03-08T16:12:38;3.20;99.90
21849;DHT22;11089;49.852;19.700;2024-03-08T16:15:40;3.00;99.90
21849;DHT22;11089;49.852;19.700;2024-03-08T16:18:41;3.10;99.90
21849;DHT22;11089;49.852;19.700;2024-03-08T16:21:42;3.00;99.90
21849;DHT22;11089;49.852;19.700;2024-03-08T16:24:44;3.00;99.90
21849;DHT22;11089;49.852;19.700;2024-03-08T16:27:45;2.90;99.90
21849;DHT22;11089;49.852;19.700;2024-03-08T16:30:47;2.70;1.00
21849;DHT22;11089;49.852;19.700;2024-03-08T16:33:49;2.70;99.90
21849;DHT22;11089;49.852;19.700;2024-03-08T16:36:49;2.60;99.90
21849;DHT22;11089;49.852;19.700;2024-03-08T16:39:52;2.60;99.90
21849;DHT22;11089;49.852;19.700;2024-03-08T16:42:53;2.60;1.00
21849;DHT22;11089;49.852;19.700;2024-03-08T16:45:55;2.50;1.00
21849;DHT22;11089;49.852;19.700;2024-03-08T16:48:56;2.50;1.00
21849;DHT22;11089;49.852;19.700;2024-03-08T16:51:57;2.40;1.00
21849;DHT22;11089;49.852;19.700;2024-03-08T16:54:58;2.30;1.00
21849;DHT22;11089;49.852;19.700;2024-03-08T16:57:59;2.20;1.00
21849;DHT22;11089;49.852;19.700;2024-03-08T17:01:00;2.10;1.00
21849;DHT22;11089;49.852;19.700;2024-03-08T17:04:02;2.10;74.60
21849;DHT22;11089;49.852;19.700;2024-03-08T17:07:04;2.00;99.90
21849;DHT22;11089;49.852;19.700;2024-03-08T17:10:07;1.90;1.00
21849;DHT22;11089;49.852;19.700;2024-03-08T17:13:15;2.00;99.90
21849;DHT22;11089;49.852;19.700;2024-03-08T17:16:18;1.90;99.90
21849;DHT22;11089;49.852;19.700;2024-03-08T17:19:25;1.80;99.90
21849;DHT22;11089;49.852;19.700;2024-03-08T17:22:28;1.80;1.00
21849;DHT22;11089;49.852;19.700;2024-03-08T17:25:29;1.70;1.00
21849;DHT22;11089;49.852;19.700;2024-03-08T17:28:30;1.70;1.00
21849;DHT22;11089;49.852;19.700;2024-03-08T17:31:31;1.60;1.00
21849;DHT22;11089;49.852;19.700;2024-03-08T17:34:33;1.50;1.00
21849;DHT22;11089;49.852;19.700;2024-03-08T17:37:36;1.50;1.00
21849;DHT22;11089;49.852;19.700;2024-03-08T17:40:39;1.50;1.00
21849;DHT22;11089;49.852;19.700;2024-03-08T17:43:41;1.40;1.00
21849;DHT22;11089;49.852;19.700;2024-03-08T17:46:42;1.40;1.00
21849;DHT22;11089;49.852;19.700;2024-03-08T17:49:43;1.30;1.00
21849;DHT22;11089;49.852;19.700;2024-03-08T17:52:47;1.10;61.80
21849;DHT22;11089;49.852;19.700;2024-03-08T17:55:48;1.00;99.90
21849;DHT22;11089;49.852;19.700;2024-03-08T17:58:51;1.10;99.90
21849;DHT22;11089;49.852;19.700;2024-03-08T18:01:52;1.10;1.00
21849;DHT22;11089;49.852;19.700;2024-03-08T18:04:55;0.90;99.90
21849;DHT22;11089;49.852;19.700;2024-03-08T18:07:57;0.90;99.90
21849;DHT22;11089;49.852;19.700;2024-03-08T18:10:58;0.80;1.00
21849;DHT22;11089;49.852;19.700;2024-03-08T18:14:00;0.80;1.00
21849;DHT22;11089;49.852;19.700;2024-03-08T18:17:01;0.80;99.90
21849;DHT22;11089;49.852;19.700;2024-03-08T18:20:03;0.70;99.90
21849;DHT22;11089;49.852;19.700;2024-03-08T18:23:05;0.70;99.90
21849;DHT22;11089;49.852;19.700;2024-03-08T18:26:07;0.60;1.00
21849;DHT22;11089;49.852;19.700;2024-03-08T18:29:08;0.60;99.90
21849;DHT22;11089;49.852;19.700;2024-03-08T18:32:10;0.60;4.10
21849;DHT22;11089;49.852;19.700;2024-03-08T18:35:11;0.50;99.90
21849;DHT22;11089;49.852;19.700;2024-03-08T18:38:12;0.50;1.00
21849;DHT22;11089;49.852;19.700;2024-03-08T18:41:13;0.60;1.00
21849;DHT22;11089;49.852;19.700;2024-03-08T18:44:14;0.50;99.90
21849;DHT22;11089;49.852;19.700;2024-03-08T18:47:16;0.40;99.90
21849;DHT22;11089;49.852;19.700;2024-03-08T18:50:20;0.50;1.00
21849;DHT22;11089;49.852;19.700;2024-03-08T18:53:24;0.40;1.00
21849;DHT22;11089;49.852;19.700;2024-03-08T18:56:25;0.40;1.00
21849;DHT22;11089;49.852;19.700;2024-03-08T18:59:27;0.30;99.90
21849;DHT22;11089;49.852;19.700;2024-03-08T19:02:28;0.20;99.90
21849;DHT22;11089;49.852;19.700;2024-03-08T19:05:29;0.30;1.00
21849;DHT22;11089;49.852;19.700;2024-03-08T19:08:33;0.20;1.00
21849;DHT22;11089;49.852;19.700;2024-03-08T19:11:34;0.20;99.90
21849;DHT22;11089;49.852;19.700;2024-03-08T19:14:35;0.30;1.00
21849;DHT22;11089;49.852;19.700;2024-03-08T19:17:39;0.30;1.00
21849;DHT22;11089;49.852;19.700;2024-03-08T19:20:40;0.30;99.90
21849;DHT22;11089;49.852;19.700;2024-03-08T19:23:41;0.20;1.00
21849;DHT22;11089;49.852;19.700;2024-03-08T19:26:44;0.20;1.00